Accueil
METAR-TAF:

METAR-TAF

Aéroports :

Aéroport Riviera Airport

Albenga, Italie

latitude: 44-03N, longitude: 008-07E, altitude: 45 m

Observation

Le bulletin a été fait il y a 10 heures et 23 minutes, à 17:50 UTC
Vent 3 kt de est, variant entre nord-est et sud-est
Température 11°C
Humidité 66%
Pression 1007 hPa
Visibilité: 9000 m
Nuages épars à une hauteur de 2000 ft
Nuages fragmentés à une hauteur de 7000 ft
averses à proximité,

METAR: LIMG 231750Z 10003KT 050V140 9000 VCSH SCT020 BKN070 11/05 Q1007

Heure: 06:13 (04:13 UTC)

Prévision

Le bulletin a été fait il y a 17 heures et 13 minutes, à 11:00 UTC
Prévision valable du 23 à 12 UTC au 24 à 12 UTC
Vent 8 kt de nord
Visibilité 10 km ou plus
Nuages épars à une hauteur de 5000 ft

TAF: LIMG 231100Z 2312/2412 36008KT 9999 SCT050

Observations et prévisions météorologiques de plus de 4000 aéroports (messages METAR et TAF).

Les stations disponibles sont représentées par des disques jaunes et rouges sur la carte.

Passer la souris dessus pour voir le nom de la station.

Cliquer dessus pour voir les observations et prévisions météorologiques.

Pour changer de carte: cliquez sur les boutons verts avec une croix noire pour zoomer, sur le bouton vert avec un tiret pour effectuer un zoom arrière, ou sur les flèches vertes pour les cartes adjacentes.


METAR-TAF: